createdAt,value
2022-12-20T00:07:23.414Z,100856.44
2022-12-20T00:17:24.760Z,100839.28
2022-12-20T00:27:26.058Z,100844.75
2022-12-20T00:37:27.332Z,100843.94
2022-12-20T00:47:28.594Z,100846.78
2022-12-20T00:57:29.925Z,100836.59
2022-12-20T01:07:31.215Z,100836.59
2022-12-20T01:17:32.500Z,100826.25
2022-12-20T01:27:33.762Z,100822.78
2022-12-20T01:37:35.482Z,100816.16
2022-12-20T01:47:36.844Z,100816.59
2022-12-20T01:57:38.163Z,100808.50
2022-12-20T02:07:39.433Z,100798.31
2022-12-20T02:17:40.680Z,100789.97
2022-12-20T02:27:42.329Z,100766.63
2022-12-20T02:37:44.440Z,100745.97
2022-12-20T02:47:45.658Z,100764.00
2022-12-20T02:57:47.056Z,100743.25
2022-12-20T03:07:48.388Z,100751.88
2022-12-20T03:17:49.650Z,100745.06
2022-12-20T03:27:50.893Z,100746.53
2022-12-20T03:37:52.147Z,100732.41
2022-12-20T03:47:53.359Z,100737.56
2022-12-20T03:57:54.613Z,100722.16
2022-12-20T04:07:55.856Z,100711.25
2022-12-20T04:17:57.095Z,100702.69
2022-12-20T04:27:58.324Z,100681.94
2022-12-20T04:37:59.567Z,100683.97
2022-12-20T04:48:21.038Z,100673.00
2022-12-20T04:58:22.092Z,100680.63
2022-12-20T05:08:23.368Z,100698.00
2022-12-20T05:18:24.595Z,100667.63
2022-12-20T05:28:25.879Z,100672.88
2022-12-20T05:38:27.118Z,100676.28
2022-12-20T05:48:29.516Z,100667.94
2022-12-20T05:58:30.845Z,100654.03
2022-12-20T06:08:32.081Z,100664.69
2022-12-20T06:18:33.465Z,100655.22
2022-12-20T06:28:34.768Z,100658.69
2022-12-20T06:38:36.022Z,100657.03
2022-12-20T06:48:37.322Z,100626.81
2022-12-20T06:58:38.583Z,100636.56
2022-12-20T07:08:39.853Z,100641.78
2022-12-20T07:18:41.082Z,100615.84
2022-12-20T07:28:42.345Z,100648.75
2022-12-20T07:38:43.586Z,100640.09
2022-12-20T07:48:44.905Z,100611.84
2022-12-20T07:58:47.343Z,100602.47
2022-12-20T08:08:48.649Z,100598.31
2022-12-20T08:18:49.909Z,100595.06
2022-12-20T08:28:51.141Z,100584.97
2022-12-20T08:38:52.421Z,100579.97
2022-12-20T08:48:53.747Z,100572.47
2022-12-20T08:58:54.998Z,100560.66
2022-12-20T09:08:56.297Z,100560.06
2022-12-20T09:19:04.242Z,100568.09
2022-12-20T09:29:06.261Z,100571.91
2022-12-20T09:39:07.635Z,100560.75
2022-12-20T09:49:08.956Z,100553.91
2022-12-20T09:59:10.165Z,100559.25
2022-12-20T10:09:11.516Z,100532.41
2022-12-20T10:19:12.758Z,100536.59
2022-12-20T10:29:14.010Z,100537.59
2022-12-20T10:39:15.228Z,100521.47
2022-12-20T10:49:16.569Z,100505.91
2022-12-20T10:59:17.799Z,100495.47
2022-12-20T11:09:19.038Z,100470.53
2022-12-20T11:19:20.298Z,100448.13
2022-12-20T11:29:21.553Z,100449.09
2022-12-20T11:39:22.803Z,100445.75
2022-12-20T11:49:24.048Z,100429.31
2022-12-20T11:59:25.346Z,100421.53
2022-12-20T12:09:26.593Z,100403.31
2022-12-20T12:19:27.935Z,100403.34
2022-12-20T12:29:29.208Z,100380.81
2022-12-20T12:39:30.680Z,100345.41
2022-12-20T12:49:32.137Z,100337.66
2022-12-20T12:59:33.418Z,100327.25
2022-12-20T13:09:34.744Z,100327.28
2022-12-20T13:19:36.091Z,100321.22
2022-12-20T13:29:37.390Z,100316.03
2022-12-20T13:39:38.652Z,100294.41
2022-12-20T13:49:40.008Z,100295.28
2022-12-20T13:59:41.265Z,100286.59
2022-12-20T14:09:42.509Z,100297.00
2022-12-20T14:19:43.839Z,100279.69
2022-12-20T14:29:45.153Z,100286.63
2022-12-20T14:39:46.431Z,100275.34
2022-12-20T14:49:47.885Z,100254.56
2022-12-20T14:59:49.191Z,100271.00
2022-12-20T15:09:50.468Z,100267.50
2022-12-20T15:19:51.742Z,100268.38
2022-12-20T15:29:53.017Z,100245.03
2022-12-20T15:39:55.381Z,100243.22
2022-12-20T15:49:56.669Z,100245.84
2022-12-20T16:00:00.366Z,100249.31
2022-12-20T16:10:03.145Z,100253.66
2022-12-20T16:20:04.496Z,100247.59
2022-12-20T16:30:06.668Z,100252.81
2022-12-20T16:40:07.950Z,100240.66
2022-12-20T16:50:09.436Z,100232.88
2022-12-20T17:00:10.750Z,100228.53
2022-12-20T17:10:11.994Z,100227.63
2022-12-20T17:20:13.482Z,100235.38
2022-12-20T17:30:14.748Z,100224.13
2022-12-20T17:40:16.091Z,100226.72
2022-12-20T17:50:18.086Z,100220.69
2022-12-20T18:00:19.396Z,100223.25
2022-12-20T18:10:20.776Z,100205.94
2022-12-20T18:20:22.258Z,100197.34
2022-12-20T18:30:23.516Z,100191.28
2022-12-20T18:40:26.177Z,100181.78
2022-12-20T18:50:27.921Z,100184.38
2022-12-20T19:00:29.215Z,100190.44
2022-12-20T19:10:30.486Z,100206.88
2022-12-20T19:20:31.752Z,100197.34
2022-12-20T19:30:33.029Z,100199.06
2022-12-20T19:51:18.333Z,100212.97
2022-12-20T20:01:19.966Z,100212.09
2022-12-20T20:11:21.344Z,100225.09
2022-12-20T20:21:22.742Z,100226.84
2022-12-20T20:31:24.368Z,100209.53
2022-12-20T20:41:29.317Z,100217.31
2022-12-20T20:51:30.593Z,100216.47
2022-12-20T21:01:32.018Z,100212.16
2022-12-20T21:11:33.879Z,100202.63
2022-12-20T21:21:35.272Z,100197.44
2022-12-20T21:31:36.638Z,100180.13
2022-12-20T21:41:37.971Z,100170.63
2022-12-20T21:51:39.220Z,100152.44
2022-12-20T22:01:40.620Z,100174.94
2022-12-20T22:11:42.157Z,100179.28
2022-12-20T22:21:43.949Z,100174.09
2022-12-20T22:31:45.376Z,100171.50
2022-12-20T22:41:46.799Z,100177.56
2022-12-20T22:51:59.339Z,100178.44
2022-12-20T23:02:07.696Z,100171.50
2022-12-20T23:12:28.041Z,100185.34
2022-12-20T23:22:38.366Z,100186.22
2022-12-20T23:32:39.863Z,100173.22
2022-12-20T23:42:41.136Z,100172.38
2022-12-20T23:52:42.388Z,100149.00
